createdAt,value
2023-03-28T00:01:11.835Z,5.15
2023-03-28T00:03:40.540Z,5.12
2023-03-28T00:06:16.282Z,5.10
2023-03-28T00:08:45.944Z,5.08
2023-03-28T00:11:19.651Z,5.10
2023-03-28T00:13:58.020Z,5.11
2023-03-28T00:16:33.931Z,5.12
2023-03-28T00:19:06.059Z,5.15
2023-03-28T00:21:37.350Z,5.13
2023-03-28T00:24:10.730Z,5.08
2023-03-28T00:26:38.300Z,4.99
2023-03-28T00:29:09.073Z,4.94
2023-03-28T00:31:39.290Z,5.00
2023-03-28T00:34:07.777Z,4.96
2023-03-28T00:36:35.397Z,4.99
2023-03-28T00:39:06.454Z,4.96
2023-03-28T00:41:42.636Z,5.01
2023-03-28T00:44:48.959Z,4.97
2023-03-28T00:47:45.982Z,4.98
2023-03-28T00:50:38.095Z,4.96
2023-03-28T00:53:21.567Z,5.00
2023-03-28T00:55:55.250Z,5.03
2023-03-28T00:58:27.656Z,4.99
2023-03-28T01:00:57.426Z,5.02
2023-03-28T01:03:33.871Z,4.96
2023-03-28T01:06:04.499Z,5.00
2023-03-28T01:08:44.864Z,4.96
2023-03-28T01:11:14.514Z,4.98
2023-03-28T01:13:50.691Z,4.98
2023-03-28T01:16:22.010Z,4.89
2023-03-28T01:18:52.002Z,4.86
2023-03-28T01:22:06.835Z,4.81
2023-03-28T01:25:34.552Z,4.80
2023-03-28T01:28:26.689Z,4.84
2023-03-28T01:31:35.317Z,4.82
2023-03-28T01:34:42.668Z,4.86
2023-03-28T01:37:32.712Z,4.81
2023-03-28T01:40:39.487Z,4.79
2023-03-28T01:43:42.864Z,4.72
2023-03-28T01:46:38.169Z,4.74
2023-03-28T01:49:28.676Z,4.70
2023-03-28T01:52:04.945Z,4.77
2023-03-28T01:55:14.892Z,4.70
2023-03-28T01:58:14.885Z,4.74
2023-03-28T02:00:55.886Z,4.72
2023-03-28T02:03:31.813Z,4.72
2023-03-28T02:06:08.282Z,4.77
2023-03-28T02:08:41.057Z,4.78
2023-03-28T02:11:33.600Z,4.84
2023-03-28T02:14:19.519Z,4.87
2023-03-28T02:17:28.955Z,4.88
2023-03-28T02:20:31.731Z,4.89
2023-03-28T02:23:31.396Z,4.88
2023-03-28T02:26:18.379Z,4.91
2023-03-28T02:28:59.581Z,4.92
2023-03-28T02:31:46.496Z,4.93
2023-03-28T02:34:14.332Z,4.93
2023-03-28T02:37:14.068Z,4.86
2023-03-28T02:40:13.762Z,4.86
2023-03-28T02:43:10.764Z,4.90
2023-03-28T02:46:01.061Z,4.89
2023-03-28T02:49:19.396Z,4.86
2023-03-28T02:52:15.923Z,4.86
2023-03-28T02:55:18.291Z,4.81
2023-03-28T02:58:14.150Z,4.82
2023-03-28T03:00:42.877Z,4.81
2023-03-28T03:03:11.308Z,4.79
2023-03-28T03:05:38.905Z,4.83
2023-03-28T03:08:07.394Z,4.80
2023-03-28T03:10:36.463Z,4.80
2023-03-28T03:13:04.055Z,4.78
2023-03-28T03:15:35.441Z,4.76
2023-03-28T03:18:20.496Z,4.78
2023-03-28T03:20:50.128Z,4.76
2023-03-28T03:23:18.318Z,4.71
2023-03-28T03:25:45.861Z,4.73
2023-03-28T03:28:27.088Z,4.73
2023-03-28T03:30:55.476Z,4.71
2023-03-28T03:33:32.671Z,4.72
2023-03-28T03:36:05.925Z,4.71
2023-03-28T03:38:34.708Z,4.68
2023-03-28T03:41:02.975Z,4.65
2023-03-28T03:43:30.921Z,4.67
2023-03-28T03:46:00.329Z,4.67
2023-03-28T03:48:28.666Z,4.67
2023-03-28T03:51:00.956Z,4.68
2023-03-28T03:53:29.132Z,4.69
2023-03-28T03:56:06.286Z,4.65
2023-03-28T03:58:57.956Z,4.61
2023-03-28T04:01:30.678Z,4.61
2023-03-28T04:04:18.501Z,4.60
2023-03-28T04:07:07.622Z,4.59
2023-03-28T04:09:36.265Z,4.54
2023-03-28T04:12:07.654Z,4.53
2023-03-28T04:14:45.781Z,4.54
2023-03-28T04:17:35.125Z,4.50
2023-03-28T04:20:11.593Z,4.51
2023-03-28T04:22:54.647Z,4.48
2023-03-28T04:25:24.717Z,4.47
2023-03-28T04:27:54.606Z,4.46
2023-03-28T04:30:24.400Z,4.46
2023-03-28T04:33:25.089Z,4.48
2023-03-28T04:36:00.414Z,4.47
2023-03-28T04:38:32.567Z,4.45
2023-03-28T04:41:16.682Z,4.45
2023-03-28T04:44:19.254Z,4.45
2023-03-28T04:46:56.383Z,4.43
2023-03-28T04:49:24.725Z,4.41
2023-03-28T04:51:52.716Z,4.41
2023-03-28T04:54:20.634Z,4.43
2023-03-28T04:56:48.338Z,4.43
2023-03-28T04:59:21.607Z,4.45
2023-03-28T05:01:49.538Z,4.42
2023-03-28T05:04:35.837Z,4.42
2023-03-28T05:07:06.038Z,4.43
2023-03-28T05:09:34.710Z,4.46
2023-03-28T05:12:02.414Z,4.48
2023-03-28T05:14:31.990Z,4.50
2023-03-28T05:17:11.787Z,4.51
2023-03-28T05:19:57.897Z,4.51
2023-03-28T05:22:28.149Z,4.53
2023-03-28T05:24:59.830Z,4.49
2023-03-28T05:27:27.480Z,4.49
2023-03-28T05:29:55.976Z,4.49
2023-03-28T05:32:24.568Z,4.50
2023-03-28T05:34:53.554Z,4.50
2023-03-28T05:37:22.315Z,4.51
2023-03-28T05:39:51.715Z,4.49
2023-03-28T05:42:19.956Z,4.49
2023-03-28T05:44:47.659Z,4.52
2023-03-28T05:47:34.413Z,4.52
2023-03-28T05:50:02.913Z,4.50
2023-03-28T05:52:30.651Z,4.53
2023-03-28T05:54:58.685Z,4.59
2023-03-28T05:57:26.297Z,4.60
2023-03-28T05:59:54.395Z,4.66
2023-03-28T06:02:24.357Z,4.68
2023-03-28T06:04:57.845Z,4.73
2023-03-28T06:07:39.394Z,4.76
2023-03-28T06:10:13.469Z,4.82
2023-03-28T06:12:45.152Z,4.85
2023-03-28T06:15:13.046Z,4.89
2023-03-28T06:17:44.661Z,4.92
2023-03-28T06:20:12.255Z,4.97
2023-03-28T06:22:40.174Z,5.01
2023-03-28T06:25:10.941Z,5.06
2023-03-28T06:27:38.825Z,5.10
2023-03-28T06:30:07.548Z,5.16
2023-03-28T06:32:43.335Z,5.21
2023-03-28T06:35:13.313Z,5.22
2023-03-28T06:37:40.803Z,5.24
2023-03-28T06:40:09.749Z,5.27
2023-03-28T06:42:37.385Z,5.30
2023-03-28T06:45:34.409Z,5.35
2023-03-28T06:48:09.064Z,5.38
2023-03-28T06:51:06.366Z,5.42
2023-03-28T06:53:36.084Z,5.42
2023-03-28T06:56:04.521Z,5.45
2023-03-28T06:58:32.186Z,5.46
2023-03-28T07:01:06.985Z,5.50
2023-03-28T07:03:37.456Z,5.53
2023-03-28T07:06:08.338Z,5.53
2023-03-28T07:08:36.823Z,5.57
2023-03-28T07:11:05.326Z,5.61
2023-03-28T07:13:33.492Z,5.65
2023-03-28T07:16:11.496Z,5.69
2023-03-28T07:18:39.600Z,5.75
2023-03-28T07:21:13.950Z,5.79
2023-03-28T07:23:44.520Z,5.83
2023-03-28T07:26:15.941Z,5.86
2023-03-28T07:28:43.485Z,5.86
2023-03-28T07:31:12.099Z,5.83
2023-03-28T07:33:41.168Z,5.76
2023-03-28T07:36:19.361Z,5.77
2023-03-28T07:38:51.067Z,5.79
2023-03-28T07:41:22.432Z,5.76
2023-03-28T07:43:50.217Z,5.76
2023-03-28T07:46:18.073Z,5.76
2023-03-28T07:48:46.375Z,5.81
2023-03-28T07:51:15.215Z,5.83
2023-03-28T07:53:42.772Z,5.90
2023-03-28T07:56:11.740Z,5.91
2023-03-28T07:58:55.252Z,5.96
2023-03-28T08:01:22.922Z,6.00
2023-03-28T08:03:55.862Z,6.00
2023-03-28T08:06:34.060Z,6.05
2023-03-28T08:09:02.818Z,6.07
2023-03-28T08:11:35.916Z,6.10
2023-03-28T08:14:05.914Z,6.09
2023-03-28T08:16:33.828Z,6.03
2023-03-28T08:19:10.704Z,6.08
2023-03-28T08:21:49.316Z,6.20
2023-03-28T08:24:25.285Z,6.22
2023-03-28T08:27:03.177Z,6.33
2023-03-28T08:29:31.365Z,6.36
2023-03-28T08:31:59.044Z,6.35
2023-03-28T08:34:27.083Z,6.40
2023-03-28T08:36:59.844Z,6.48
2023-03-28T08:39:29.069Z,6.62
2023-03-28T08:42:23.928Z,6.77
2023-03-28T08:45:26.890Z,6.92
2023-03-28T08:48:19.141Z,7.04
2023-03-28T08:51:05.936Z,7.01
2023-03-28T08:53:43.928Z,7.08
2023-03-28T08:56:16.255Z,7.17
2023-03-28T08:59:07.382Z,7.22
2023-03-28T09:01:35.769Z,7.29
2023-03-28T09:04:04.347Z,7.26
2023-03-28T09:06:40.818Z,7.26
2023-03-28T09:09:50.741Z,7.24
2023-03-28T09:13:06.033Z,7.45
2023-03-28T09:15:51.534Z,7.50
2023-03-28T09:18:47.100Z,7.59
2023-03-28T09:21:52.838Z,7.78
2023-03-28T09:25:14.517Z,7.92
2023-03-28T09:28:38.555Z,8.04
2023-03-28T09:31:09.813Z,8.24
2023-03-28T09:33:42.884Z,8.16
2023-03-28T09:36:31.594Z,8.09
2023-03-28T09:39:19.040Z,8.18
2023-03-28T09:41:53.496Z,8.30
2023-03-28T09:45:07.997Z,8.41
2023-03-28T09:47:54.085Z,8.47
2023-03-28T09:50:26.332Z,8.46
2023-03-28T09:52:58.869Z,8.49
2023-03-28T09:55:30.799Z,8.59
2023-03-28T09:58:14.732Z,8.45
2023-03-28T10:01:24.222Z,8.60
2023-03-28T10:04:15.953Z,8.69
2023-03-28T10:07:11.263Z,8.80
2023-03-28T10:09:54.342Z,8.81
2023-03-28T10:12:35.278Z,8.66
2023-03-28T10:15:03.409Z,8.51
2023-03-28T10:17:51.032Z,8.42
2023-03-28T10:20:24.845Z,8.43
2023-03-28T10:22:57.222Z,8.46
2023-03-28T10:25:45.311Z,8.47
2023-03-28T10:28:28.995Z,8.50
2023-03-28T10:31:01.455Z,8.51
2023-03-28T10:33:42.817Z,8.47
2023-03-28T10:36:42.899Z,8.48
2023-03-28T10:39:24.807Z,8.50
2023-03-28T10:42:11.815Z,8.54
2023-03-28T10:45:02.735Z,8.53
2023-03-28T10:47:34.513Z,8.60
2023-03-28T10:50:19.901Z,8.69
2023-03-28T10:53:18.470Z,8.75
2023-03-28T10:56:34.361Z,8.72
2023-03-28T10:59:25.417Z,8.62
2023-03-28T11:02:31.799Z,8.58
2023-03-28T11:05:52.100Z,8.65
2023-03-28T11:08:44.868Z,8.85
2023-03-28T11:11:54.109Z,9.05
2023-03-28T11:14:49.999Z,9.12
2023-03-28T11:17:55.864Z,9.16
2023-03-28T11:20:38.906Z,9.18
2023-03-28T11:23:50.389Z,9.21
2023-03-28T11:27:22.430Z,9.32
2023-03-28T11:30:24.045Z,9.40
2023-03-28T11:33:29.158Z,9.59
2023-03-28T11:36:14.523Z,9.67
2023-03-28T11:38:49.499Z,9.78
2023-03-28T11:41:26.968Z,9.86
2023-03-28T11:44:27.746Z,10.05
2023-03-28T11:47:04.512Z,10.25
2023-03-28T11:49:50.581Z,10.38
2023-03-28T11:53:01.845Z,10.50
2023-03-28T11:55:46.499Z,10.54
2023-03-28T11:58:29.711Z,10.59
2023-03-28T12:00:57.143Z,10.64
2023-03-28T12:04:07.669Z,10.72
2023-03-28T12:06:52.244Z,10.79
2023-03-28T12:09:33.291Z,10.86
2023-03-28T12:12:11.753Z,10.99
2023-03-28T12:15:05.303Z,11.03
2023-03-28T12:17:56.737Z,11.13
2023-03-28T12:20:32.965Z,11.30
2023-03-28T12:23:11.722Z,11.46
2023-03-28T12:26:05.186Z,11.67
2023-03-28T12:28:49.596Z,11.70
2023-03-28T12:31:31.422Z,11.79
2023-03-28T12:34:17.584Z,11.88
2023-03-28T12:37:21.460Z,11.90
2023-03-28T12:40:23.964Z,11.93
2023-03-28T12:42:57.827Z,11.98
2023-03-28T12:45:31.472Z,12.05
2023-03-28T12:48:06.467Z,12.11
2023-03-28T12:50:55.692Z,12.10
2023-03-28T12:53:24.257Z,12.06
2023-03-28T12:55:51.981Z,12.07
2023-03-28T12:58:29.085Z,12.13
2023-03-28T13:01:13.426Z,12.15
2023-03-28T13:04:14.059Z,12.25
2023-03-28T13:07:10.305Z,12.33
2023-03-28T13:10:14.581Z,12.38
2023-03-28T13:13:00.283Z,12.39
2023-03-28T13:15:31.012Z,12.46
2023-03-28T13:18:17.111Z,12.55
2023-03-28T13:20:45.972Z,12.63
2023-03-28T13:23:15.291Z,12.72
2023-03-28T13:25:44.058Z,12.82
2023-03-28T13:28:11.385Z,12.95
2023-03-28T13:30:43.366Z,13.06
2023-03-28T13:33:28.769Z,13.00
2023-03-28T13:35:59.140Z,13.05
2023-03-28T13:38:26.935Z,13.14
2023-03-28T13:40:57.050Z,13.28
2023-03-28T13:43:33.474Z,13.41
2023-03-28T13:46:06.680Z,13.53
2023-03-28T13:48:52.603Z,13.74
2023-03-28T13:51:30.244Z,13.88
2023-03-28T13:53:57.618Z,13.96
2023-03-28T13:56:31.388Z,14.08
2023-03-28T13:58:59.038Z,14.20
2023-03-28T14:01:34.494Z,14.27
2023-03-28T14:04:01.944Z,14.35
2023-03-28T14:06:30.465Z,14.42
2023-03-28T14:09:02.440Z,14.52
2023-03-28T14:11:35.783Z,14.63
2023-03-28T14:14:25.273Z,14.66
2023-03-28T14:16:53.409Z,14.68
2023-03-28T14:19:23.721Z,14.80
2023-03-28T14:21:52.566Z,14.90
2023-03-28T14:24:26.532Z,14.93
2023-03-28T14:27:06.551Z,14.96
2023-03-28T14:29:33.917Z,15.04
2023-03-28T14:32:06.228Z,15.11
2023-03-28T14:34:35.232Z,15.09
2023-03-28T14:37:06.244Z,15.19
2023-03-28T14:39:35.673Z,15.26
2023-03-28T14:42:05.387Z,15.39
2023-03-28T14:44:37.357Z,15.50
2023-03-28T14:47:05.233Z,15.69
2023-03-28T14:49:32.788Z,15.82
2023-03-28T14:52:03.483Z,15.87
2023-03-28T14:54:38.742Z,15.88
2023-03-28T14:57:06.901Z,15.86
2023-03-28T14:59:41.333Z,15.91
2023-03-28T15:02:21.232Z,16.03
2023-03-28T15:04:49.565Z,16.10
2023-03-28T15:07:26.458Z,16.18
2023-03-28T15:10:07.160Z,16.24
2023-03-28T15:12:55.595Z,16.22
2023-03-28T15:15:28.410Z,16.19
2023-03-28T15:17:58.392Z,16.21
2023-03-28T15:20:31.838Z,16.28
2023-03-28T15:23:02.187Z,16.28
2023-03-28T15:25:31.377Z,16.28
2023-03-28T15:28:01.559Z,16.37
2023-03-28T15:30:32.734Z,16.43
2023-03-28T15:33:05.799Z,16.45
2023-03-28T15:35:39.843Z,16.48
2023-03-28T15:38:14.932Z,16.50
2023-03-28T15:40:44.492Z,16.52
2023-03-28T15:43:27.149Z,16.57
2023-03-28T15:45:58.754Z,16.57
2023-03-28T15:48:27.071Z,16.60
2023-03-28T15:50:54.759Z,16.59
2023-03-28T15:53:26.585Z,16.60
2023-03-28T15:55:54.485Z,16.59
2023-03-28T15:58:23.231Z,16.58
2023-03-28T16:00:53.032Z,16.54
2023-03-28T16:03:20.457Z,16.47
2023-03-28T16:05:52.103Z,16.43
2023-03-28T16:08:23.719Z,16.28
2023-03-28T16:10:51.119Z,16.23
2023-03-28T16:13:47.738Z,16.18
2023-03-28T16:16:45.303Z,16.05
2023-03-28T16:19:26.489Z,16.01
2023-03-28T16:21:54.281Z,15.85
2023-03-28T16:24:21.703Z,15.67
2023-03-28T16:26:49.604Z,15.48
2023-03-28T16:29:17.013Z,15.32
2023-03-28T16:31:44.556Z,15.23
2023-03-28T16:34:12.025Z,15.13
2023-03-28T16:36:39.453Z,15.08
2023-03-28T16:39:07.922Z,14.99
2023-03-28T16:41:35.711Z,14.92
2023-03-28T16:44:04.151Z,14.86
2023-03-28T16:46:31.861Z,14.78
2023-03-28T16:48:59.968Z,14.71
2023-03-28T16:51:27.345Z,14.59
2023-03-28T16:53:54.680Z,14.48
2023-03-28T16:56:25.992Z,14.37
2023-03-28T16:58:53.833Z,14.27
2023-03-28T17:01:21.549Z,14.18
2023-03-28T17:03:49.533Z,14.09
2023-03-28T17:06:17.032Z,14.01
2023-03-28T17:08:44.655Z,13.91
2023-03-28T17:11:12.964Z,13.79
2023-03-28T17:13:42.001Z,13.71
2023-03-28T17:16:10.232Z,13.66
2023-03-28T17:18:37.687Z,13.59
2023-03-28T17:21:10.700Z,13.52
2023-03-28T17:23:39.190Z,13.45
2023-03-28T17:26:08.296Z,13.38
2023-03-28T17:28:39.073Z,13.31
2023-03-28T17:31:08.356Z,13.25
2023-03-28T17:33:36.175Z,13.20
2023-03-28T17:36:21.910Z,13.15
2023-03-28T17:38:51.383Z,13.11
2023-03-28T17:41:19.684Z,13.07
2023-03-28T17:43:47.304Z,13.05
2023-03-28T17:46:15.005Z,13.03
2023-03-28T17:48:42.885Z,13.00
2023-03-28T17:51:11.233Z,12.97
2023-03-28T17:53:39.471Z,12.97
2023-03-28T17:56:07.147Z,12.96
2023-03-28T17:58:34.679Z,12.96
2023-03-28T18:01:02.070Z,12.94
2023-03-28T18:03:29.506Z,12.92
2023-03-28T18:06:09.803Z,12.90
2023-03-28T18:08:37.183Z,12.92
2023-03-28T18:11:07.333Z,12.91
2023-03-28T18:13:36.013Z,12.88
2023-03-28T18:16:05.103Z,12.85
2023-03-28T18:18:33.211Z,12.81
2023-03-28T18:21:00.940Z,12.78
2023-03-28T18:23:28.303Z,12.75
2023-03-28T18:25:55.630Z,12.74
2023-03-28T18:28:26.165Z,12.75
2023-03-28T18:30:54.088Z,12.75
2023-03-28T18:33:22.170Z,12.74
2023-03-28T18:35:49.544Z,12.70
2023-03-28T18:38:17.719Z,12.62
2023-03-28T18:40:45.394Z,12.59
2023-03-28T18:43:12.720Z,12.54
2023-03-28T18:45:40.286Z,12.51
2023-03-28T18:48:08.910Z,12.50
2023-03-28T18:50:38.681Z,12.49
2023-03-28T18:53:06.017Z,12.47
2023-03-28T18:55:33.393Z,12.45
2023-03-28T18:58:02.272Z,12.40
2023-03-28T19:00:29.908Z,12.38
2023-03-28T19:02:57.371Z,12.35
2023-03-28T19:05:24.937Z,12.34
2023-03-28T19:07:52.252Z,12.33
2023-03-28T19:10:19.626Z,12.37
2023-03-28T19:12:47.135Z,12.37
2023-03-28T19:15:14.791Z,12.35
2023-03-28T19:17:42.783Z,12.33
2023-03-28T19:20:13.572Z,12.35
2023-03-28T19:22:41.479Z,12.35
2023-03-28T19:25:09.595Z,12.34
2023-03-28T19:27:37.701Z,12.33
2023-03-28T19:30:06.418Z,12.31
2023-03-28T19:32:33.919Z,12.29
2023-03-28T19:35:01.369Z,12.29
2023-03-28T19:37:28.855Z,12.27
2023-03-28T19:39:59.008Z,12.27
2023-03-28T19:42:26.386Z,12.25
2023-03-28T19:44:53.749Z,12.24
2023-03-28T19:47:21.117Z,12.20
2023-03-28T19:49:49.203Z,12.19
2023-03-28T19:52:16.598Z,12.19
2023-03-28T19:54:43.973Z,12.17
2023-03-28T19:57:11.367Z,12.19
2023-03-28T19:59:38.762Z,12.17
2023-03-28T20:02:06.252Z,12.15
2023-03-28T20:04:33.675Z,12.13
2023-03-28T20:07:01.312Z,12.10
2023-03-28T20:09:28.623Z,12.09
2023-03-28T20:11:56.200Z,12.08
2023-03-28T20:14:23.591Z,12.05
2023-03-28T20:16:51.002Z,12.02
2023-03-28T20:19:18.374Z,12.02
2023-03-28T20:21:46.421Z,12.05
2023-03-28T20:24:14.291Z,12.02
2023-03-28T20:26:41.786Z,11.99
2023-03-28T20:29:13.639Z,12.00
2023-03-28T20:31:41.054Z,11.98
2023-03-28T20:34:08.477Z,11.95
2023-03-28T20:36:36.296Z,11.93
2023-03-28T20:39:04.726Z,11.78
2023-03-28T20:41:32.041Z,11.78
2023-03-28T20:44:03.450Z,11.77
2023-03-28T20:46:36.708Z,11.81
2023-03-28T20:49:06.338Z,11.79
2023-03-28T20:51:38.289Z,11.76
2023-03-28T20:54:06.524Z,11.78
2023-03-28T20:56:33.863Z,11.72
2023-03-28T20:59:01.259Z,11.79
2023-03-28T21:01:29.747Z,11.85
2023-03-28T21:03:59.714Z,11.93
2023-03-28T21:06:29.724Z,11.97
2023-03-28T21:09:01.702Z,11.98
2023-03-28T21:11:31.282Z,11.97
2023-03-28T21:13:59.769Z,11.94
2023-03-28T21:16:28.683Z,11.91
2023-03-28T21:18:56.431Z,11.87
2023-03-28T21:21:24.190Z,11.85
2023-03-28T21:23:53.105Z,11.87
2023-03-28T21:26:22.646Z,11.87
2023-03-28T21:28:52.378Z,11.88
2023-03-28T21:31:25.467Z,11.90
2023-03-28T21:33:56.703Z,11.93
2023-03-28T21:36:25.465Z,11.93
2023-03-28T21:38:53.084Z,11.93
2023-03-28T21:41:20.657Z,11.91
2023-03-28T21:43:48.124Z,11.89
2023-03-28T21:46:18.234Z,11.89
2023-03-28T21:48:47.745Z,11.91
2023-03-28T21:51:16.945Z,11.91
2023-03-28T21:53:45.721Z,11.92
2023-03-28T21:56:14.878Z,11.93
2023-03-28T21:58:42.490Z,11.94
2023-03-28T22:01:13.319Z,11.95
2023-03-28T22:03:40.873Z,11.91
2023-03-28T22:06:08.533Z,11.87
2023-03-28T22:08:35.979Z,11.85
2023-03-28T22:11:10.796Z,11.88
2023-03-28T22:13:38.772Z,11.88
2023-03-28T22:16:09.214Z,11.84
2023-03-28T22:18:36.725Z,11.82
2023-03-28T22:21:04.957Z,11.80
2023-03-28T22:23:32.357Z,11.78
2023-03-28T22:25:59.791Z,11.77
2023-03-28T22:28:27.124Z,11.75
2023-03-28T22:30:56.172Z,11.72
2023-03-28T22:33:25.078Z,11.69
2023-03-28T22:35:53.134Z,11.68
2023-03-28T22:38:20.601Z,11.64
2023-03-28T22:40:47.996Z,11.56
2023-03-28T22:43:15.998Z,11.49
2023-03-28T22:45:43.428Z,11.50
2023-03-28T22:48:14.237Z,11.42
2023-03-28T22:50:44.115Z,11.18
2023-03-28T22:53:12.350Z,11.17
2023-03-28T22:55:41.639Z,11.19
2023-03-28T22:58:09.003Z,11.01
2023-03-28T23:00:36.347Z,11.01
2023-03-28T23:03:04.036Z,10.98
2023-03-28T23:05:31.878Z,11.03
2023-03-28T23:08:00.104Z,11.04
2023-03-28T23:10:27.695Z,11.02
2023-03-28T23:12:55.114Z,11.04
2023-03-28T23:15:22.622Z,11.04
2023-03-28T23:17:50.297Z,11.01
2023-03-28T23:20:19.077Z,11.01
2023-03-28T23:22:48.530Z,11.00
2023-03-28T23:25:18.419Z,10.98
2023-03-28T23:27:46.617Z,10.97
2023-03-28T23:30:14.929Z,10.94
2023-03-28T23:32:42.433Z,10.94
2023-03-28T23:35:10.511Z,10.96
2023-03-28T23:37:38.309Z,11.00
2023-03-28T23:40:11.488Z,10.98
2023-03-28T23:42:38.856Z,10.95
2023-03-28T23:45:06.783Z,10.93
2023-03-28T23:47:34.173Z,10.90
2023-03-28T23:50:01.555Z,10.88
2023-03-28T23:52:28.963Z,10.88
2023-03-28T23:54:56.565Z,10.89
2023-03-28T23:57:25.161Z,10.92
2023-03-28T23:59:52.759Z,10.93
